sensor_id;sensor_type;location;lat;lon;timestamp;temperature;humidity
480;DHT22;226;48.606;9.096;2024-02-04T00:01:57;8.30;74.80
480;DHT22;226;48.606;9.096;2024-02-04T00:04:25;8.10;74.50
480;DHT22;226;48.606;9.096;2024-02-04T00:06:54;8.00;73.50
480;DHT22;226;48.606;9.096;2024-02-04T00:09:23;7.90;73.30
480;DHT22;226;48.606;9.096;2024-02-04T00:11:54;7.90;74.60
480;DHT22;226;48.606;9.096;2024-02-04T00:14:25;7.70;74.10
480;DHT22;226;48.606;9.096;2024-02-04T00:16:53;7.80;75.20
480;DHT22;226;48.606;9.096;2024-02-04T00:19:21;7.70;74.40
480;DHT22;226;48.606;9.096;2024-02-04T00:21:49;7.80;76.40
480;DHT22;226;48.606;9.096;2024-02-04T00:24:18;7.60;76.30
480;DHT22;226;48.606;9.096;2024-02-04T00:26:48;7.90;76.90
480;DHT22;226;48.606;9.096;2024-02-04T00:29:16;7.60;75.90
480;DHT22;226;48.606;9.096;2024-02-04T00:31:44;7.60;76.20
480;DHT22;226;48.606;9.096;2024-02-04T00:34:12;7.50;76.00
480;DHT22;226;48.606;9.096;2024-02-04T00:36:41;7.50;75.70
480;DHT22;226;48.606;9.096;2024-02-04T00:39:09;7.50;76.80
480;DHT22;226;48.606;9.096;2024-02-04T00:41:38;7.40;76.60
480;DHT22;226;48.606;9.096;2024-02-04T00:44:07;7.60;77.20
480;DHT22;226;48.606;9.096;2024-02-04T00:46:35;7.50;77.10
480;DHT22;226;48.606;9.096;2024-02-04T00:49:03;7.40;75.70
480;DHT22;226;48.606;9.096;2024-02-04T00:51:32;7.80;77.70
480;DHT22;226;48.606;9.096;2024-02-04T00:54:00;7.40;77.10
480;DHT22;226;48.606;9.096;2024-02-04T00:56:28;7.30;76.60
480;DHT22;226;48.606;9.096;2024-02-04T00:58:56;7.30;76.30
480;DHT22;226;48.606;9.096;2024-02-04T01:01:26;7.20;76.10
480;DHT22;226;48.606;9.096;2024-02-04T01:03:54;7.20;76.50
480;DHT22;226;48.606;9.096;2024-02-04T01:06:22;7.30;77.80
480;DHT22;226;48.606;9.096;2024-02-04T01:08:51;7.40;78.20
480;DHT22;226;48.606;9.096;2024-02-04T01:11:20;7.30;77.50
480;DHT22;226;48.606;9.096;2024-02-04T01:13:48;7.40;78.00
480;DHT22;226;48.606;9.096;2024-02-04T01:16:16;7.20;76.90
480;DHT22;226;48.606;9.096;2024-02-04T01:18:47;7.20;78.10
480;DHT22;226;48.606;9.096;2024-02-04T01:21:15;7.20;77.40
480;DHT22;226;48.606;9.096;2024-02-04T01:23:43;6.90;77.20
480;DHT22;226;48.606;9.096;2024-02-04T01:26:11;7.10;78.80
480;DHT22;226;48.606;9.096;2024-02-04T01:28:39;7.20;79.30
480;DHT22;226;48.606;9.096;2024-02-04T01:31:07;7.10;79.20
480;DHT22;226;48.606;9.096;2024-02-04T01:33:35;7.10;79.20
480;DHT22;226;48.606;9.096;2024-02-04T01:36:05;7.10;79.80
480;DHT22;226;48.606;9.096;2024-02-04T01:38:33;7.20;79.50
480;DHT22;226;48.606;9.096;2024-02-04T01:41:02;7.30;79.90
480;DHT22;226;48.606;9.096;2024-02-04T01:43:30;7.10;79.50
480;DHT22;226;48.606;9.096;2024-02-04T01:45:58;7.20;79.30
480;DHT22;226;48.606;9.096;2024-02-04T01:48:26;7.10;79.30
480;DHT22;226;48.606;9.096;2024-02-04T01:50:55;7.10;81.30
480;DHT22;226;48.606;9.096;2024-02-04T01:53:26;7.10;80.30
480;DHT22;226;48.606;9.096;2024-02-04T01:55:56;7.10;79.30
480;DHT22;226;48.606;9.096;2024-02-04T01:58:24;7.20;79.40
480;DHT22;226;48.606;9.096;2024-02-04T02:00:53;7.40;80.40
480;DHT22;226;48.606;9.096;2024-02-04T02:03:21;7.30;79.40
480;DHT22;226;48.606;9.096;2024-02-04T02:05:52;7.10;78.50
480;DHT22;226;48.606;9.096;2024-02-04T02:08:22;7.20;80.10
480;DHT22;226;48.606;9.096;2024-02-04T02:10:57;7.10;79.60
480;DHT22;226;48.606;9.096;2024-02-04T02:13:31;7.30;80.90
480;DHT22;226;48.606;9.096;2024-02-04T02:16:09;7.20;80.40
480;DHT22;226;48.606;9.096;2024-02-04T02:18:42;7.00;80.70
480;DHT22;226;48.606;9.096;2024-02-04T02:21:24;7.00;80.20
480;DHT22;226;48.606;9.096;2024-02-04T02:24:04;7.20;80.20
480;DHT22;226;48.606;9.096;2024-02-04T02:26:38;7.10;80.40
480;DHT22;226;48.606;9.096;2024-02-04T02:29:06;7.10;80.00
480;DHT22;226;48.606;9.096;2024-02-04T02:31:35;7.00;80.20
480;DHT22;226;48.606;9.096;2024-02-04T02:34:14;7.10;79.60
480;DHT22;226;48.606;9.096;2024-02-04T02:37:09;7.00;79.80
480;DHT22;226;48.606;9.096;2024-02-04T02:39:45;7.20;79.80
480;DHT22;226;48.606;9.096;2024-02-04T02:42:15;7.20;80.10
480;DHT22;226;48.606;9.096;2024-02-04T02:44:45;7.10;79.20
480;DHT22;226;48.606;9.096;2024-02-04T02:47:14;7.30;80.60
480;DHT22;226;48.606;9.096;2024-02-04T02:49:43;7.30;80.40
480;DHT22;226;48.606;9.096;2024-02-04T02:52:11;7.30;79.80
480;DHT22;226;48.606;9.096;2024-02-04T02:54:39;7.20;80.10
480;DHT22;226;48.606;9.096;2024-02-04T02:57:08;7.40;80.40
480;DHT22;226;48.606;9.096;2024-02-04T02:59:37;7.20;80.00
480;DHT22;226;48.606;9.096;2024-02-04T03:02:05;7.30;80.70
480;DHT22;226;48.606;9.096;2024-02-04T03:04:33;7.30;79.00
480;DHT22;226;48.606;9.096;2024-02-04T03:07:01;7.20;79.50
480;DHT22;226;48.606;9.096;2024-02-04T03:09:30;7.40;80.80
480;DHT22;226;48.606;9.096;2024-02-04T03:11:58;7.20;80.00
480;DHT22;226;48.606;9.096;2024-02-04T03:14:26;7.40;80.80
480;DHT22;226;48.606;9.096;2024-02-04T03:16:55;7.50;80.90
480;DHT22;226;48.606;9.096;2024-02-04T03:19:23;7.30;81.80
480;DHT22;226;48.606;9.096;2024-02-04T03:21:51;7.00;80.50
480;DHT22;226;48.606;9.096;2024-02-04T03:24:19;7.10;81.20
480;DHT22;226;48.606;9.096;2024-02-04T03:26:48;7.20;82.60
480;DHT22;226;48.606;9.096;2024-02-04T03:29:16;7.00;82.30
480;DHT22;226;48.606;9.096;2024-02-04T03:31:44;7.00;82.70
480;DHT22;226;48.606;9.096;2024-02-04T03:34:13;7.10;83.50
480;DHT22;226;48.606;9.096;2024-02-04T03:36:42;7.10;82.30
480;DHT22;226;48.606;9.096;2024-02-04T03:39:10;7.20;83.90
480;DHT22;226;48.606;9.096;2024-02-04T03:41:38;7.10;82.60
480;DHT22;226;48.606;9.096;2024-02-04T03:44:06;7.20;84.60
480;DHT22;226;48.606;9.096;2024-02-04T03:46:34;7.20;84.20
480;DHT22;226;48.606;9.096;2024-02-04T03:49:03;7.10;83.00
480;DHT22;226;48.606;9.096;2024-02-04T03:51:32;7.20;81.90
480;DHT22;226;48.606;9.096;2024-02-04T03:54:01;7.20;82.00
480;DHT22;226;48.606;9.096;2024-02-04T03:56:29;7.20;82.60
480;DHT22;226;48.606;9.096;2024-02-04T03:58:57;7.20;81.50
480;DHT22;226;48.606;9.096;2024-02-04T04:01:25;7.30;81.50
480;DHT22;226;48.606;9.096;2024-02-04T04:03:54;7.30;81.40
480;DHT22;226;48.606;9.096;2024-02-04T04:06:22;7.40;81.70
480;DHT22;226;48.606;9.096;2024-02-04T04:08:51;7.40;82.10
480;DHT22;226;48.606;9.096;2024-02-04T04:11:20;7.30;80.50
480;DHT22;226;48.606;9.096;2024-02-04T04:13:48;7.50;81.60
480;DHT22;226;48.606;9.096;2024-02-04T04:16:20;7.50;81.10
480;DHT22;226;48.606;9.096;2024-02-04T04:18:49;7.60;81.40
480;DHT22;226;48.606;9.096;2024-02-04T04:21:17;7.30;80.40
480;DHT22;226;48.606;9.096;2024-02-04T04:23:45;7.30;80.70
480;DHT22;226;48.606;9.096;2024-02-04T04:26:15;7.30;80.50
480;DHT22;226;48.606;9.096;2024-02-04T04:28:43;7.50;81.70
480;DHT22;226;48.606;9.096;2024-02-04T04:31:11;7.10;80.50
480;DHT22;226;48.606;9.096;2024-02-04T04:33:39;7.10;81.60
480;DHT22;226;48.606;9.096;2024-02-04T04:36:08;7.20;82.30
480;DHT22;226;48.606;9.096;2024-02-04T04:38:36;7.10;83.10
480;DHT22;226;48.606;9.096;2024-02-04T04:41:04;7.00;82.90
480;DHT22;226;48.606;9.096;2024-02-04T04:43:38;7.00;83.10
480;DHT22;226;48.606;9.096;2024-02-04T04:46:06;6.90;83.40
480;DHT22;226;48.606;9.096;2024-02-04T04:48:34;7.00;84.60
480;DHT22;226;48.606;9.096;2024-02-04T04:51:02;6.90;84.20
480;DHT22;226;48.606;9.096;2024-02-04T04:53:30;7.00;86.10
480;DHT22;226;48.606;9.096;2024-02-04T04:55:58;6.90;84.70
480;DHT22;226;48.606;9.096;2024-02-04T04:58:27;6.90;85.20
480;DHT22;226;48.606;9.096;2024-02-04T05:00:56;6.90;84.60
480;DHT22;226;48.606;9.096;2024-02-04T05:03:24;7.00;83.30
480;DHT22;226;48.606;9.096;2024-02-04T05:05:52;7.40;83.90
480;DHT22;226;48.606;9.096;2024-02-04T05:08:21;7.10;82.80
480;DHT22;226;48.606;9.096;2024-02-04T05:10:49;7.10;82.90
480;DHT22;226;48.606;9.096;2024-02-04T05:13:17;7.00;83.10
480;DHT22;226;48.606;9.096;2024-02-04T06:03:20;7.10;83.10
480;DHT22;226;48.606;9.096;2024-02-04T06:08:19;7.10;83.00
480;DHT22;226;48.606;9.096;2024-02-04T06:10:47;7.20;83.70
480;DHT22;226;48.606;9.096;2024-02-04T06:13:16;7.10;82.60
480;DHT22;226;48.606;9.096;2024-02-04T06:15:44;7.10;82.50
480;DHT22;226;48.606;9.096;2024-02-04T06:18:12;7.00;82.10
480;DHT22;226;48.606;9.096;2024-02-04T06:20:40;7.00;82.60
480;DHT22;226;48.606;9.096;2024-02-04T06:23:08;6.90;82.00
480;DHT22;226;48.606;9.096;2024-02-04T06:25:36;7.20;83.10
480;DHT22;226;48.606;9.096;2024-02-04T06:28:05;7.00;82.30
480;DHT22;226;48.606;9.096;2024-02-04T06:30:33;6.90;81.70
480;DHT22;226;48.606;9.096;2024-02-04T06:33:02;6.80;83.10
480;DHT22;226;48.606;9.096;2024-02-04T06:35:31;6.90;83.60
480;DHT22;226;48.606;9.096;2024-02-04T06:37:59;6.90;82.80
480;DHT22;226;48.606;9.096;2024-02-04T06:40:27;7.20;84.10
480;DHT22;226;48.606;9.096;2024-02-04T06:42:57;6.70;83.40
480;DHT22;226;48.606;9.096;2024-02-04T06:45:25;6.70;83.40
480;DHT22;226;48.606;9.096;2024-02-04T06:47:53;6.60;83.60
480;DHT22;226;48.606;9.096;2024-02-04T06:50:22;6.60;83.50
480;DHT22;226;48.606;9.096;2024-02-04T06:52:50;6.80;84.80
480;DHT22;226;48.606;9.096;2024-02-04T06:55:18;6.60;84.10
480;DHT22;226;48.606;9.096;2024-02-04T06:57:46;6.60;84.00
480;DHT22;226;48.606;9.096;2024-02-04T07:00:16;6.70;85.30
480;DHT22;226;48.606;9.096;2024-02-04T07:02:44;6.50;85.70
480;DHT22;226;48.606;9.096;2024-02-04T07:05:12;6.80;85.50
480;DHT22;226;48.606;9.096;2024-02-04T07:07:42;6.60;83.50
480;DHT22;226;48.606;9.096;2024-02-04T07:10:11;6.60;83.80
480;DHT22;226;48.606;9.096;2024-02-04T07:12:39;6.70;84.40
480;DHT22;226;48.606;9.096;2024-02-04T07:15:07;6.70;84.70
480;DHT22;226;48.606;9.096;2024-02-04T07:17:37;6.70;82.30
480;DHT22;226;48.606;9.096;2024-02-04T07:20:06;6.80;82.00
480;DHT22;226;48.606;9.096;2024-02-04T07:22:35;6.80;81.80
480;DHT22;226;48.606;9.096;2024-02-04T07:25:04;7.10;81.40
480;DHT22;226;48.606;9.096;2024-02-04T07:27:33;6.90;80.20
480;DHT22;226;48.606;9.096;2024-02-04T07:30:01;6.90;79.50
480;DHT22;226;48.606;9.096;2024-02-04T07:32:30;6.90;79.50
480;DHT22;226;48.606;9.096;2024-02-04T07:35:00;7.00;79.60
480;DHT22;226;48.606;9.096;2024-02-04T07:37:28;7.00;79.50
480;DHT22;226;48.606;9.096;2024-02-04T07:39:56;7.20;79.10
480;DHT22;226;48.606;9.096;2024-02-04T07:42:25;7.10;77.80
480;DHT22;226;48.606;9.096;2024-02-04T07:44:53;7.10;76.60
480;DHT22;226;48.606;9.096;2024-02-04T07:47:21;7.20;74.80
480;DHT22;226;48.606;9.096;2024-02-04T07:49:50;7.40;72.50
480;DHT22;226;48.606;9.096;2024-02-04T07:52:20;7.60;72.70
480;DHT22;226;48.606;9.096;2024-02-04T07:54:48;7.60;71.40
480;DHT22;226;48.606;9.096;2024-02-04T07:57:16;7.60;70.90
480;DHT22;226;48.606;9.096;2024-02-04T07:59:44;7.60;70.50
480;DHT22;226;48.606;9.096;2024-02-04T08:02:12;7.80;69.50
480;DHT22;226;48.606;9.096;2024-02-04T08:04:40;7.70;69.40
480;DHT22;226;48.606;9.096;2024-02-04T08:07:09;8.00;67.20
480;DHT22;226;48.606;9.096;2024-02-04T08:09:38;8.20;66.10
480;DHT22;226;48.606;9.096;2024-02-04T08:12:07;8.10;65.80
480;DHT22;226;48.606;9.096;2024-02-04T08:14:36;8.10;64.90
480;DHT22;226;48.606;9.096;2024-02-04T08:17:04;8.30;63.60
480;DHT22;226;48.606;9.096;2024-02-04T08:19:32;8.20;63.80
480;DHT22;226;48.606;9.096;2024-02-04T08:22:00;8.20;64.60
480;DHT22;226;48.606;9.096;2024-02-04T08:24:28;8.20;63.20
480;DHT22;226;48.606;9.096;2024-02-04T08:27:00;8.30;64.10
480;DHT22;226;48.606;9.096;2024-02-04T08:29:28;8.10;63.50
480;DHT22;226;48.606;9.096;2024-02-04T08:31:56;8.10;64.60
480;DHT22;226;48.606;9.096;2024-02-04T08:34:24;8.20;64.70
480;DHT22;226;48.606;9.096;2024-02-04T08:36:53;8.10;64.20
480;DHT22;226;48.606;9.096;2024-02-04T08:39:21;8.00;64.50
480;DHT22;226;48.606;9.096;2024-02-04T08:41:50;7.90;64.60
480;DHT22;226;48.606;9.096;2024-02-04T08:44:19;8.20;63.60
480;DHT22;226;48.606;9.096;2024-02-04T08:47:01;8.10;63.40
480;DHT22;226;48.606;9.096;2024-02-04T08:49:29;8.00;63.50
480;DHT22;226;48.606;9.096;2024-02-04T08:51:58;7.90;64.40
480;DHT22;226;48.606;9.096;2024-02-04T08:54:26;8.00;65.30
480;DHT22;226;48.606;9.096;2024-02-04T08:56:54;7.80;65.70
480;DHT22;226;48.606;9.096;2024-02-04T08:59:24;7.90;64.90
480;DHT22;226;48.606;9.096;2024-02-04T09:01:52;7.90;64.80
480;DHT22;226;48.606;9.096;2024-02-04T09:04:20;8.10;64.10
480;DHT22;226;48.606;9.096;2024-02-04T09:06:48;8.10;63.70
480;DHT22;226;48.606;9.096;2024-02-04T09:09:16;7.90;62.50
480;DHT22;226;48.606;9.096;2024-02-04T09:11:45;8.20;63.60
480;DHT22;226;48.606;9.096;2024-02-04T09:14:13;8.30;62.70
480;DHT22;226;48.606;9.096;2024-02-04T09:16:42;8.30;62.00
480;DHT22;226;48.606;9.096;2024-02-04T09:19:10;7.50;60.40
480;DHT22;226;48.606;9.096;2024-02-04T09:21:39;8.30;61.30
480;DHT22;226;48.606;9.096;2024-02-04T09:24:07;8.50;61.70
480;DHT22;226;48.606;9.096;2024-02-04T09:26:35;8.50;54.20
480;DHT22;226;48.606;9.096;2024-02-04T09:29:04;8.70;53.00
480;DHT22;226;48.606;9.096;2024-02-04T09:31:32;8.80;50.50
480;DHT22;226;48.606;9.096;2024-02-04T09:34:02;8.70;50.20
480;DHT22;226;48.606;9.096;2024-02-04T09:36:31;8.80;50.00
480;DHT22;226;48.606;9.096;2024-02-04T09:38:59;8.70;49.40
480;DHT22;226;48.606;9.096;2024-02-04T09:41:27;8.60;49.30
480;DHT22;226;48.606;9.096;2024-02-04T09:43:55;9.00;49.70
480;DHT22;226;48.606;9.096;2024-02-04T09:46:25;8.80;48.90
480;DHT22;226;48.606;9.096;2024-02-04T09:48:53;8.60;50.20
480;DHT22;226;48.606;9.096;2024-02-04T09:51:25;8.60;50.20
480;DHT22;226;48.606;9.096;2024-02-04T09:53:55;8.70;49.40
480;DHT22;226;48.606;9.096;2024-02-04T09:56:27;8.70;48.60
480;DHT22;226;48.606;9.096;2024-02-04T09:58:56;8.80;49.10
480;DHT22;226;48.606;9.096;2024-02-04T10:01:25;8.70;48.40
480;DHT22;226;48.606;9.096;2024-02-04T10:03:54;8.80;49.00
480;DHT22;226;48.606;9.096;2024-02-04T10:06:23;9.00;48.70
480;DHT22;226;48.606;9.096;2024-02-04T10:08:52;8.80;46.40
480;DHT22;226;48.606;9.096;2024-02-04T10:11:20;8.90;47.80
480;DHT22;226;48.606;9.096;2024-02-04T10:13:49;8.90;48.50
480;DHT22;226;48.606;9.096;2024-02-04T10:16:17;9.10;48.80
480;DHT22;226;48.606;9.096;2024-02-04T10:18:47;9.40;45.80
480;DHT22;226;48.606;9.096;2024-02-04T10:21:17;9.60;45.60
480;DHT22;226;48.606;9.096;2024-02-04T10:23:48;9.70;45.50
480;DHT22;226;48.606;9.096;2024-02-04T10:26:16;9.90;44.50
480;DHT22;226;48.606;9.096;2024-02-04T10:28:47;9.90;42.80
480;DHT22;226;48.606;9.096;2024-02-04T10:31:15;10.00;41.40
480;DHT22;226;48.606;9.096;2024-02-04T10:33:43;9.70;44.40
480;DHT22;226;48.606;9.096;2024-02-04T10:36:12;9.70;44.30
480;DHT22;226;48.606;9.096;2024-02-04T10:38:40;9.70;43.90
480;DHT22;226;48.606;9.096;2024-02-04T10:41:14;9.80;43.30
480;DHT22;226;48.606;9.096;2024-02-04T10:43:43;9.80;42.70
480;DHT22;226;48.606;9.096;2024-02-04T10:46:13;9.70;43.00
480;DHT22;226;48.606;9.096;2024-02-04T10:48:48;9.70;42.10
480;DHT22;226;48.606;9.096;2024-02-04T10:51:23;9.90;43.60
480;DHT22;226;48.606;9.096;2024-02-04T10:53:55;9.90;41.70
480;DHT22;226;48.606;9.096;2024-02-04T10:56:30;10.00;41.10
480;DHT22;226;48.606;9.096;2024-02-04T10:58:59;9.90;41.40
480;DHT22;226;48.606;9.096;2024-02-04T11:01:30;9.90;42.60
480;DHT22;226;48.606;9.096;2024-02-04T11:03:59;9.70;43.00
480;DHT22;226;48.606;9.096;2024-02-04T11:06:29;9.80;41.80
480;DHT22;226;48.606;9.096;2024-02-04T11:08:58;9.90;41.80
480;DHT22;226;48.606;9.096;2024-02-04T11:11:29;9.90;41.80
480;DHT22;226;48.606;9.096;2024-02-04T11:14:01;9.80;42.20
480;DHT22;226;48.606;9.096;2024-02-04T11:16:58;9.70;42.60
480;DHT22;226;48.606;9.096;2024-02-04T11:19:37;9.50;42.90
480;DHT22;226;48.606;9.096;2024-02-04T11:22:31;9.50;42.90
480;DHT22;226;48.606;9.096;2024-02-04T11:25:25;9.70;44.20
480;DHT22;226;48.606;9.096;2024-02-04T11:27:59;9.80;42.60
480;DHT22;226;48.606;9.096;2024-02-04T11:30:32;9.90;42.70
480;DHT22;226;48.606;9.096;2024-02-04T11:33:01;10.10;41.10
480;DHT22;226;48.606;9.096;2024-02-04T11:35:29;10.20;41.00
480;DHT22;226;48.606;9.096;2024-02-04T11:37:58;10.20;40.30
480;DHT22;226;48.606;9.096;2024-02-04T11:40:31;10.30;40.60
480;DHT22;226;48.606;9.096;2024-02-04T11:43:06;10.40;40.30
480;DHT22;226;48.606;9.096;2024-02-04T11:45:37;10.50;39.70
480;DHT22;226;48.606;9.096;2024-02-04T11:48:07;10.50;39.50
480;DHT22;226;48.606;9.096;2024-02-04T11:50:37;10.60;39.70
480;DHT22;226;48.606;9.096;2024-02-04T11:53:07;10.80;38.20
480;DHT22;226;48.606;9.096;2024-02-04T11:55:36;10.70;39.80
480;DHT22;226;48.606;9.096;2024-02-04T11:58:13;10.60;39.20
480;DHT22;226;48.606;9.096;2024-02-04T12:00:42;10.70;38.80
480;DHT22;226;48.606;9.096;2024-02-04T12:03:11;11.00;38.20
480;DHT22;226;48.606;9.096;2024-02-04T12:05:40;11.20;34.50
480;DHT22;226;48.606;9.096;2024-02-04T12:08:08;11.40;36.80
480;DHT22;226;48.606;9.096;2024-02-04T12:10:38;11.40;35.80
480;DHT22;226;48.606;9.096;2024-02-04T12:13:06;11.40;36.40
480;DHT22;226;48.606;9.096;2024-02-04T12:15:37;11.40;36.10
480;DHT22;226;48.606;9.096;2024-02-04T12:18:07;11.40;29.60
480;DHT22;226;48.606;9.096;2024-02-04T12:20:36;11.60;36.10
480;DHT22;226;48.606;9.096;2024-02-04T12:23:05;11.50;36.90
480;DHT22;226;48.606;9.096;2024-02-04T12:25:34;11.50;37.20
480;DHT22;226;48.606;9.096;2024-02-04T12:28:05;11.50;36.80
480;DHT22;226;48.606;9.096;2024-02-04T12:30:33;11.50;37.60
480;DHT22;226;48.606;9.096;2024-02-04T12:33:05;11.50;37.50
480;DHT22;226;48.606;9.096;2024-02-04T12:35:34;11.50;37.70
480;DHT22;226;48.606;9.096;2024-02-04T12:38:02;11.50;37.90
480;DHT22;226;48.606;9.096;2024-02-04T12:40:31;11.40;37.60
480;DHT22;226;48.606;9.096;2024-02-04T12:42:59;11.80;38.10
480;DHT22;226;48.606;9.096;2024-02-04T12:45:32;11.70;37.50
480;DHT22;226;48.606;9.096;2024-02-04T12:48:02;11.70;38.00
480;DHT22;226;48.606;9.096;2024-02-04T12:50:31;11.70;36.20
480;DHT22;226;48.606;9.096;2024-02-04T12:53:04;11.50;37.40
480;DHT22;226;48.606;9.096;2024-02-04T12:55:33;11.50;37.60
480;DHT22;226;48.606;9.096;2024-02-04T12:58:03;11.40;37.70
480;DHT22;226;48.606;9.096;2024-02-04T13:00:31;11.20;37.30
480;DHT22;226;48.606;9.096;2024-02-04T13:03:00;11.20;38.00
480;DHT22;226;48.606;9.096;2024-02-04T13:05:31;11.50;37.90
480;DHT22;226;48.606;9.096;2024-02-04T13:08:00;11.50;37.40
480;DHT22;226;48.606;9.096;2024-02-04T13:10:30;11.30;37.90
480;DHT22;226;48.606;9.096;2024-02-04T13:13:01;11.50;38.10
480;DHT22;226;48.606;9.096;2024-02-04T13:15:30;11.60;37.50
480;DHT22;226;48.606;9.096;2024-02-04T13:17:58;11.60;37.10
480;DHT22;226;48.606;9.096;2024-02-04T13:20:26;11.70;37.30
480;DHT22;226;48.606;9.096;2024-02-04T13:22:59;11.90;37.50
480;DHT22;226;48.606;9.096;2024-02-04T13:25:30;12.00;36.10
480;DHT22;226;48.606;9.096;2024-02-04T13:27:59;11.90;36.40
480;DHT22;226;48.606;9.096;2024-02-04T13:30:27;11.90;37.10
480;DHT22;226;48.606;9.096;2024-02-04T13:32:55;11.90;36.20
480;DHT22;226;48.606;9.096;2024-02-04T13:35:24;11.90;36.70
480;DHT22;226;48.606;9.096;2024-02-04T13:37:52;12.40;37.30
480;DHT22;226;48.606;9.096;2024-02-04T13:40:23;11.90;36.90
480;DHT22;226;48.606;9.096;2024-02-04T13:42:52;12.00;36.50
480;DHT22;226;48.606;9.096;2024-02-04T13:45:20;12.10;36.80
480;DHT22;226;48.606;9.096;2024-02-04T13:47:49;12.10;36.30
480;DHT22;226;48.606;9.096;2024-02-04T13:50:17;12.10;37.10
480;DHT22;226;48.606;9.096;2024-02-04T13:52:45;11.90;36.90
480;DHT22;226;48.606;9.096;2024-02-04T13:55:13;11.90;37.50
480;DHT22;226;48.606;9.096;2024-02-04T13:57:43;11.90;37.30
480;DHT22;226;48.606;9.096;2024-02-04T14:00:13;11.70;37.00
480;DHT22;226;48.606;9.096;2024-02-04T14:02:41;11.80;37.80
480;DHT22;226;48.606;9.096;2024-02-04T14:05:09;12.00;37.80
480;DHT22;226;48.606;9.096;2024-02-04T14:07:37;12.00;37.60
480;DHT22;226;48.606;9.096;2024-02-04T14:10:07;11.90;37.50
480;DHT22;226;48.606;9.096;2024-02-04T14:12:35;11.90;37.60
480;DHT22;226;48.606;9.096;2024-02-04T14:15:06;11.90;37.80
480;DHT22;226;48.606;9.096;2024-02-04T14:17:34;11.90;37.20
480;DHT22;226;48.606;9.096;2024-02-04T14:20:02;11.80;37.70
480;DHT22;226;48.606;9.096;2024-02-04T14:22:31;11.50;38.10
480;DHT22;226;48.606;9.096;2024-02-04T14:24:59;11.40;38.10
480;DHT22;226;48.606;9.096;2024-02-04T14:27:27;11.30;38.40
480;DHT22;226;48.606;9.096;2024-02-04T14:29:56;11.10;39.30
480;DHT22;226;48.606;9.096;2024-02-04T14:32:26;11.10;39.30
480;DHT22;226;48.606;9.096;2024-02-04T14:34:54;11.30;39.00
480;DHT22;226;48.606;9.096;2024-02-04T14:37:22;11.40;37.90
480;DHT22;226;48.606;9.096;2024-02-04T14:39:50;11.20;38.30
480;DHT22;226;48.606;9.096;2024-02-04T14:42:19;11.20;38.40
480;DHT22;226;48.606;9.096;2024-02-04T14:44:47;11.00;38.40
480;DHT22;226;48.606;9.096;2024-02-04T14:47:15;11.20;39.30
480;DHT22;226;48.606;9.096;2024-02-04T14:49:44;10.80;38.80
480;DHT22;226;48.606;9.096;2024-02-04T14:52:13;10.80;38.70
480;DHT22;226;48.606;9.096;2024-02-04T14:54:41;10.70;39.20
480;DHT22;226;48.606;9.096;2024-02-04T14:57:10;10.80;39.50
480;DHT22;226;48.606;9.096;2024-02-04T14:59:38;10.50;39.80
480;DHT22;226;48.606;9.096;2024-02-04T15:02:07;10.60;40.10
480;DHT22;226;48.606;9.096;2024-02-04T15:04:35;10.50;40.90
480;DHT22;226;48.606;9.096;2024-02-04T15:07:05;10.50;40.80
480;DHT22;226;48.606;9.096;2024-02-04T15:09:34;10.70;40.10
480;DHT22;226;48.606;9.096;2024-02-04T15:12:03;10.60;40.90
480;DHT22;226;48.606;9.096;2024-02-04T15:14:32;10.60;39.90
480;DHT22;226;48.606;9.096;2024-02-04T15:17:00;10.50;40.40
480;DHT22;226;48.606;9.096;2024-02-04T15:19:29;10.50;39.90
480;DHT22;226;48.606;9.096;2024-02-04T15:21:59;10.50;40.40
480;DHT22;226;48.606;9.096;2024-02-04T15:24:30;10.40;40.20
480;DHT22;226;48.606;9.096;2024-02-04T15:26:59;10.40;40.40
480;DHT22;226;48.606;9.096;2024-02-04T15:29:33;10.50;39.70
480;DHT22;226;48.606;9.096;2024-02-04T15:32:03;10.40;40.20
480;DHT22;226;48.606;9.096;2024-02-04T15:34:32;10.30;40.70
480;DHT22;226;48.606;9.096;2024-02-04T15:37:00;10.20;41.00
480;DHT22;226;48.606;9.096;2024-02-04T15:39:30;10.20;41.90
480;DHT22;226;48.606;9.096;2024-02-04T15:41:58;10.10;42.40
480;DHT22;226;48.606;9.096;2024-02-04T15:44:26;10.10;42.60
480;DHT22;226;48.606;9.096;2024-02-04T15:46:54;10.00;42.50
480;DHT22;226;48.606;9.096;2024-02-04T15:49:24;10.00;42.10
480;DHT22;226;48.606;9.096;2024-02-04T15:51:54;10.00;42.80
480;DHT22;226;48.606;9.096;2024-02-04T15:54:23;9.90;44.00
480;DHT22;226;48.606;9.096;2024-02-04T15:56:55;9.90;44.70
480;DHT22;226;48.606;9.096;2024-02-04T15:59:42;9.70;45.50
480;DHT22;226;48.606;9.096;2024-02-04T16:02:13;9.60;47.30
480;DHT22;226;48.606;9.096;2024-02-04T16:04:42;9.50;47.50
480;DHT22;226;48.606;9.096;2024-02-04T16:07:13;9.50;48.10
480;DHT22;226;48.606;9.096;2024-02-04T16:09:43;9.40;49.10
480;DHT22;226;48.606;9.096;2024-02-04T16:12:18;9.40;49.90
480;DHT22;226;48.606;9.096;2024-02-04T16:17:18;9.20;59.00
480;DHT22;226;48.606;9.096;2024-02-04T16:19:47;9.20;52.70
480;DHT22;226;48.606;9.096;2024-02-04T16:22:17;9.30;52.20
480;DHT22;226;48.606;9.096;2024-02-04T16:24:45;9.10;52.90
480;DHT22;226;48.606;9.096;2024-02-04T16:27:15;9.20;54.50
480;DHT22;226;48.606;9.096;2024-02-04T16:29:44;9.30;55.60
480;DHT22;226;48.606;9.096;2024-02-04T16:32:12;9.10;56.80
480;DHT22;226;48.606;9.096;2024-02-04T16:34:41;9.20;57.30
480;DHT22;226;48.606;9.096;2024-02-04T16:37:09;9.00;58.10
480;DHT22;226;48.606;9.096;2024-02-04T16:39:38;9.00;59.00
480;DHT22;226;48.606;9.096;2024-02-04T16:42:08;8.80;56.10
480;DHT22;226;48.606;9.096;2024-02-04T16:44:37;8.60;61.70
480;DHT22;226;48.606;9.096;2024-02-04T16:47:06;8.90;59.70
480;DHT22;226;48.606;9.096;2024-02-04T16:49:36;8.80;83.50
480;DHT22;226;48.606;9.096;2024-02-04T16:52:06;8.80;67.10
480;DHT22;226;48.606;9.096;2024-02-04T16:54:34;8.80;68.40
480;DHT22;226;48.606;9.096;2024-02-04T16:57:03;8.70;68.80
480;DHT22;226;48.606;9.096;2024-02-04T16:59:33;8.60;72.60
480;DHT22;226;48.606;9.096;2024-02-04T17:02:04;8.90;70.70
480;DHT22;226;48.606;9.096;2024-02-04T17:04:33;8.80;73.80
480;DHT22;226;48.606;9.096;2024-02-04T17:34:46;8.30;86.30
480;DHT22;226;48.606;9.096;2024-02-04T17:37:15;8.30;71.70
480;DHT22;226;48.606;9.096;2024-02-04T17:39:43;8.20;73.90
480;DHT22;226;48.606;9.096;2024-02-04T17:42:11;8.10;76.00
480;DHT22;226;48.606;9.096;2024-02-04T17:44:40;8.20;74.60
480;DHT22;226;48.606;9.096;2024-02-04T17:47:08;8.30;73.40
480;DHT22;226;48.606;9.096;2024-02-04T17:49:38;8.30;73.30
480;DHT22;226;48.606;9.096;2024-02-04T17:52:07;8.30;73.20
480;DHT22;226;48.606;9.096;2024-02-04T17:54:35;8.30;72.80
480;DHT22;226;48.606;9.096;2024-02-04T17:57:04;8.20;74.60
480;DHT22;226;48.606;9.096;2024-02-04T18:04:40;8.00;85.70
480;DHT22;226;48.606;9.096;2024-02-04T18:07:08;8.00;85.00
480;DHT22;226;48.606;9.096;2024-02-04T18:09:37;7.90;83.70
480;DHT22;226;48.606;9.096;2024-02-04T18:12:08;7.90;83.20
480;DHT22;226;48.606;9.096;2024-02-04T18:14:37;7.90;83.30
480;DHT22;226;48.606;9.096;2024-02-04T18:17:06;7.90;83.30
480;DHT22;226;48.606;9.096;2024-02-04T18:19:34;8.20;82.80
480;DHT22;226;48.606;9.096;2024-02-04T18:22:04;8.10;78.20
480;DHT22;226;48.606;9.096;2024-02-04T18:24:33;8.00;78.70
480;DHT22;226;48.606;9.096;2024-02-04T18:27:04;8.10;78.50